sensor_id;sensor_type;location;lat;lon;timestamp;P1;durP1;ratioP1;P2;durP2;ratioP2
11443;SDS011;5778;47.856;12.154;2023-04-03T00:02:25;15.13;;;13.53;;
11443;SDS011;5778;47.856;12.154;2023-04-03T00:05:00;16.83;;;14.63;;
11443;SDS011;5778;47.856;12.154;2023-04-03T00:07:26;15.77;;;14.13;;
11443;SDS011;5778;47.856;12.154;2023-04-03T00:09:53;16.33;;;14.30;;
11443;SDS011;5778;47.856;12.154;2023-04-03T00:12:20;16.70;;;14.90;;
11443;SDS011;5778;47.856;12.154;2023-04-03T00:15:03;15.70;;;14.03;;
11443;SDS011;5778;47.856;12.154;2023-04-03T00:17:31;16.87;;;15.07;;
11443;SDS011;5778;47.856;12.154;2023-04-03T00:19:58;17.10;;;15.30;;
11443;SDS011;5778;47.856;12.154;2023-04-03T00:22:24;15.87;;;14.17;;
11443;SDS011;5778;47.856;12.154;2023-04-03T00:28:01;17.17;;;15.40;;
11443;SDS011;5778;47.856;12.154;2023-04-03T00:30:31;16.70;;;15.00;;
11443;SDS011;5778;47.856;12.154;2023-04-03T00:36:44;17.43;;;15.63;;
11443;SDS011;5778;47.856;12.154;2023-04-03T00:39:11;17.20;;;15.40;;
11443;SDS011;5778;47.856;12.154;2023-04-03T00:41:38;17.97;;;15.13;;
11443;SDS011;5778;47.856;12.154;2023-04-03T00:47:16;17.90;;;15.70;;
11443;SDS011;5778;47.856;12.154;2023-04-03T00:49:44;17.60;;;15.50;;
11443;SDS011;5778;47.856;12.154;2023-04-03T00:52:14;17.83;;;15.93;;
11443;SDS011;5778;47.856;12.154;2023-04-03T00:54:44;19.43;;;16.07;;
11443;SDS011;5778;47.856;12.154;2023-04-03T00:57:12;20.40;;;16.10;;
11443;SDS011;5778;47.856;12.154;2023-04-03T00:59:41;19.57;;;16.00;;
11443;SDS011;5778;47.856;12.154;2023-04-03T01:02:11;20.10;;;16.00;;
11443;SDS011;5778;47.856;12.154;2023-04-03T01:04:40;18.37;;;15.93;;
11443;SDS011;5778;47.856;12.154;2023-04-03T01:07:10;17.17;;;15.37;;
11443;SDS011;5778;47.856;12.154;2023-04-03T01:09:40;17.37;;;15.30;;
11443;SDS011;5778;47.856;12.154;2023-04-03T01:12:15;17.27;;;15.20;;
11443;SDS011;5778;47.856;12.154;2023-04-03T01:14:45;16.50;;;14.80;;
11443;SDS011;5778;47.856;12.154;2023-04-03T01:17:29;17.23;;;14.93;;
11443;SDS011;5778;47.856;12.154;2023-04-03T01:20:12;17.57;;;14.63;;
11443;SDS011;5778;47.856;12.154;2023-04-03T01:25:52;17.47;;;14.57;;
11443;SDS011;5778;47.856;12.154;2023-04-03T01:28:22;16.90;;;14.17;;
11443;SDS011;5778;47.856;12.154;2023-04-03T01:30:50;15.97;;;14.27;;
11443;SDS011;5778;47.856;12.154;2023-04-03T01:33:30;17.43;;;14.80;;
11443;SDS011;5778;47.856;12.154;2023-04-03T01:35:57;16.80;;;14.00;;
11443;SDS011;5778;47.856;12.154;2023-04-03T01:38:24;17.63;;;15.17;;
11443;SDS011;5778;47.856;12.154;2023-04-03T01:40:51;16.37;;;14.20;;
11443;SDS011;5778;47.856;12.154;2023-04-03T01:43:20;16.40;;;14.70;;
11443;SDS011;5778;47.856;12.154;2023-04-03T01:45:47;14.10;;;12.70;;
11443;SDS011;5778;47.856;12.154;2023-04-03T01:48:16;15.93;;;14.17;;
11443;SDS011;5778;47.856;12.154;2023-04-03T01:50:44;16.40;;;13.50;;
11443;SDS011;5778;47.856;12.154;2023-04-03T01:53:25;16.50;;;13.63;;
11443;SDS011;5778;47.856;12.154;2023-04-03T01:55:52;14.57;;;13.03;;
11443;SDS011;5778;47.856;12.154;2023-04-03T01:58:19;15.77;;;13.33;;
11443;SDS011;5778;47.856;12.154;2023-04-03T02:00:48;13.63;;;12.23;;
11443;SDS011;5778;47.856;12.154;2023-04-03T02:03:20;14.27;;;12.03;;
11443;SDS011;5778;47.856;12.154;2023-04-03T02:05:49;13.00;;;11.53;;
11443;SDS011;5778;47.856;12.154;2023-04-03T02:08:16;13.07;;;11.67;;
11443;SDS011;5778;47.856;12.154;2023-04-03T02:10:43;13.07;;;11.07;;
11443;SDS011;5778;47.856;12.154;2023-04-03T02:16:07;13.00;;;11.70;;
11443;SDS011;5778;47.856;12.154;2023-04-03T02:18:35;12.83;;;11.40;;
11443;SDS011;5778;47.856;12.154;2023-04-03T02:21:04;13.93;;;11.77;;
11443;SDS011;5778;47.856;12.154;2023-04-03T02:26:33;14.37;;;11.90;;
11443;SDS011;5778;47.856;12.154;2023-04-03T02:28:59;12.90;;;11.23;;
11443;SDS011;5778;47.856;12.154;2023-04-03T02:31:27;12.23;;;10.97;;
11443;SDS011;5778;47.856;12.154;2023-04-03T02:37:22;12.37;;;11.07;;
11443;SDS011;5778;47.856;12.154;2023-04-03T02:39:52;11.97;;;10.70;;
11443;SDS011;5778;47.856;12.154;2023-04-03T02:42:19;13.37;;;10.97;;
11443;SDS011;5778;47.856;12.154;2023-04-03T02:47:45;12.90;;;11.47;;
11443;SDS011;5778;47.856;12.154;2023-04-03T02:50:11;13.20;;;11.80;;
11443;SDS011;5778;47.856;12.154;2023-04-03T02:52:40;14.97;;;11.23;;
11443;SDS011;5778;47.856;12.154;2023-04-03T02:55:07;12.97;;;11.27;;
11443;SDS011;5778;47.856;12.154;2023-04-03T02:57:34;13.03;;;11.73;;
11443;SDS011;5778;47.856;12.154;2023-04-03T03:00:01;14.80;;;12.20;;
11443;SDS011;5778;47.856;12.154;2023-04-03T03:02:29;15.33;;;11.53;;
11443;SDS011;5778;47.856;12.154;2023-04-03T03:04:59;13.70;;;12.07;;
11443;SDS011;5778;47.856;12.154;2023-04-03T03:07:25;14.80;;;12.50;;
11443;SDS011;5778;47.856;12.154;2023-04-03T03:09:54;14.73;;;12.17;;
11443;SDS011;5778;47.856;12.154;2023-04-03T03:12:21;15.10;;;13.00;;
11443;SDS011;5778;47.856;12.154;2023-04-03T03:14:57;16.67;;;13.00;;
11443;SDS011;5778;47.856;12.154;2023-04-03T03:17:24;14.70;;;13.20;;
11443;SDS011;5778;47.856;12.154;2023-04-03T03:19:51;13.17;;;11.77;;
11443;SDS011;5778;47.856;12.154;2023-04-03T03:22:18;14.77;;;13.17;;
11443;SDS011;5778;47.856;12.154;2023-04-03T03:27:35;15.10;;;12.93;;
11443;SDS011;5778;47.856;12.154;2023-04-03T03:30:03;14.87;;;11.90;;
11443;SDS011;5778;47.856;12.154;2023-04-03T03:32:32;14.60;;;12.37;;
11443;SDS011;5778;47.856;12.154;2023-04-03T03:35:00;14.77;;;13.03;;
11443;SDS011;5778;47.856;12.154;2023-04-03T03:37:27;13.57;;;12.17;;
11443;SDS011;5778;47.856;12.154;2023-04-03T03:39:55;14.40;;;12.43;;
11443;SDS011;5778;47.856;12.154;2023-04-03T03:42:23;16.03;;;13.33;;
11443;SDS011;5778;47.856;12.154;2023-04-03T03:44:52;16.53;;;12.60;;
11443;SDS011;5778;47.856;12.154;2023-04-03T03:47:19;13.63;;;12.17;;
11443;SDS011;5778;47.856;12.154;2023-04-03T03:49:46;12.77;;;11.37;;
11443;SDS011;5778;47.856;12.154;2023-04-03T03:52:14;14.13;;;12.03;;
11443;SDS011;5778;47.856;12.154;2023-04-03T03:57:38;13.30;;;11.90;;
11443;SDS011;5778;47.856;12.154;2023-04-03T04:00:05;13.80;;;12.13;;
11443;SDS011;5778;47.856;12.154;2023-04-03T04:05:56;12.60;;;11.23;;
11443;SDS011;5778;47.856;12.154;2023-04-03T04:08:23;13.53;;;11.33;;
11443;SDS011;5778;47.856;12.154;2023-04-03T04:10:50;14.37;;;12.30;;
11443;SDS011;5778;47.856;12.154;2023-04-03T04:13:37;14.10;;;11.87;;
11443;SDS011;5778;47.856;12.154;2023-04-03T04:16:05;14.77;;;11.93;;
11443;SDS011;5778;47.856;12.154;2023-04-03T04:18:33;13.70;;;12.20;;
11443;SDS011;5778;47.856;12.154;2023-04-03T04:21:00;13.83;;;11.80;;
11443;SDS011;5778;47.856;12.154;2023-04-03T04:26:18;13.63;;;11.67;;
11443;SDS011;5778;47.856;12.154;2023-04-03T04:28:48;12.23;;;10.93;;
11443;SDS011;5778;47.856;12.154;2023-04-03T04:31:16;11.60;;;10.50;;
11443;SDS011;5778;47.856;12.154;2023-04-03T04:33:44;11.23;;;10.13;;
11443;SDS011;5778;47.856;12.154;2023-04-03T04:36:13;11.50;;;10.00;;
11443;SDS011;5778;47.856;12.154;2023-04-03T04:38:43;12.83;;;10.73;;
11443;SDS011;5778;47.856;12.154;2023-04-03T04:41:11;11.40;;;10.20;;
11443;SDS011;5778;47.856;12.154;2023-04-03T04:47:06;11.60;;;10.07;;
11443;SDS011;5778;47.856;12.154;2023-04-03T04:49:33;12.37;;;10.43;;
11443;SDS011;5778;47.856;12.154;2023-04-03T04:52:00;13.90;;;10.30;;
11443;SDS011;5778;47.856;12.154;2023-04-03T04:57:58;12.07;;;10.17;;
11443;SDS011;5778;47.856;12.154;2023-04-03T05:00:25;10.60;;;9.50;;
11443;SDS011;5778;47.856;12.154;2023-04-03T05:02:54;10.97;;;9.83;;
11443;SDS011;5778;47.856;12.154;2023-04-03T05:05:21;10.60;;;9.50;;
11443;SDS011;5778;47.856;12.154;2023-04-03T05:07:48;10.83;;;9.53;;
11443;SDS011;5778;47.856;12.154;2023-04-03T05:10:16;10.37;;;9.33;;
11443;SDS011;5778;47.856;12.154;2023-04-03T05:12:44;11.07;;;9.80;;
11443;SDS011;5778;47.856;12.154;2023-04-03T05:15:11;10.47;;;9.37;;
11443;SDS011;5778;47.856;12.154;2023-04-03T05:17:38;9.90;;;8.90;;
11443;SDS011;5778;47.856;12.154;2023-04-03T05:20:11;10.70;;;9.10;;
11443;SDS011;5778;47.856;12.154;2023-04-03T05:22:39;10.63;;;9.53;;
11443;SDS011;5778;47.856;12.154;2023-04-03T05:25:08;10.57;;;9.47;;
11443;SDS011;5778;47.856;12.154;2023-04-03T05:27:37;10.20;;;9.20;;
11443;SDS011;5778;47.856;12.154;2023-04-03T05:30:04;10.90;;;9.60;;
11443;SDS011;5778;47.856;12.154;2023-04-03T05:32:34;9.47;;;8.57;;
11443;SDS011;5778;47.856;12.154;2023-04-03T05:35:31;8.67;;;7.87;;
11443;SDS011;5778;47.856;12.154;2023-04-03T05:38:00;9.37;;;8.47;;
11443;SDS011;5778;47.856;12.154;2023-04-03T05:40:28;11.27;;;8.87;;
11443;SDS011;5778;47.856;12.154;2023-04-03T05:46:21;8.77;;;7.87;;
11443;SDS011;5778;47.856;12.154;2023-04-03T05:48:51;8.27;;;7.40;;
11443;SDS011;5778;47.856;12.154;2023-04-03T05:51:23;9.63;;;8.13;;
11443;SDS011;5778;47.856;12.154;2023-04-03T05:57:09;9.27;;;8.37;;
11443;SDS011;5778;47.856;12.154;2023-04-03T05:59:37;8.53;;;7.50;;
11443;SDS011;5778;47.856;12.154;2023-04-03T06:02:04;9.63;;;8.63;;
11443;SDS011;5778;47.856;12.154;2023-04-03T06:04:33;9.53;;;8.33;;
11443;SDS011;5778;47.856;12.154;2023-04-03T06:07:01;9.20;;;8.30;;
11443;SDS011;5778;47.856;12.154;2023-04-03T06:09:28;9.43;;;8.43;;
11443;SDS011;5778;47.856;12.154;2023-04-03T06:11:56;8.97;;;8.17;;
11443;SDS011;5778;47.856;12.154;2023-04-03T06:14:24;9.20;;;8.30;;
11443;SDS011;5778;47.856;12.154;2023-04-03T06:16:51;8.60;;;7.80;;
11443;SDS011;5778;47.856;12.154;2023-04-03T06:19:19;7.93;;;7.23;;
11443;SDS011;5778;47.856;12.154;2023-04-03T06:21:50;7.63;;;6.87;;
11443;SDS011;5778;47.856;12.154;2023-04-03T06:24:19;7.90;;;7.10;;
11443;SDS011;5778;47.856;12.154;2023-04-03T06:26:49;7.67;;;7.00;;
11443;SDS011;5778;47.856;12.154;2023-04-03T06:29:17;7.80;;;7.10;;
11443;SDS011;5778;47.856;12.154;2023-04-03T06:31:44;8.10;;;7.33;;
11443;SDS011;5778;47.856;12.154;2023-04-03T06:34:14;7.43;;;6.73;;
11443;SDS011;5778;47.856;12.154;2023-04-03T06:36:42;7.60;;;6.90;;
11443;SDS011;5778;47.856;12.154;2023-04-03T06:39:11;6.90;;;6.30;;
11443;SDS011;5778;47.856;12.154;2023-04-03T06:41:43;7.00;;;6.30;;
11443;SDS011;5778;47.856;12.154;2023-04-03T06:46:58;6.87;;;6.27;;
11443;SDS011;5778;47.856;12.154;2023-04-03T06:49:25;7.07;;;6.33;;
11443;SDS011;5778;47.856;12.154;2023-04-03T06:51:53;6.90;;;6.30;;
11443;SDS011;5778;47.856;12.154;2023-04-03T06:58:08;6.20;;;5.53;;
11443;SDS011;5778;47.856;12.154;2023-04-03T07:00:35;6.43;;;5.83;;
11443;SDS011;5778;47.856;12.154;2023-04-03T07:03:15;6.53;;;5.87;;
11443;SDS011;5778;47.856;12.154;2023-04-03T07:05:43;6.13;;;5.53;;
11443;SDS011;5778;47.856;12.154;2023-04-03T07:08:12;5.73;;;5.23;;
11443;SDS011;5778;47.856;12.154;2023-04-03T07:10:39;6.33;;;5.43;;
11443;SDS011;5778;47.856;12.154;2023-04-03T07:16:02;5.87;;;5.20;;
11443;SDS011;5778;47.856;12.154;2023-04-03T07:18:30;5.37;;;4.80;;
11443;SDS011;5778;47.856;12.154;2023-04-03T07:20:57;7.37;;;5.07;;
11443;SDS011;5778;47.856;12.154;2023-04-03T07:27:05;5.17;;;4.67;;
11443;SDS011;5778;47.856;12.154;2023-04-03T07:29:35;4.93;;;4.53;;
11443;SDS011;5778;47.856;12.154;2023-04-03T07:32:02;5.20;;;4.70;;
11443;SDS011;5778;47.856;12.154;2023-04-03T07:37:51;5.30;;;4.80;;
11443;SDS011;5778;47.856;12.154;2023-04-03T07:40:18;5.20;;;4.80;;
11443;SDS011;5778;47.856;12.154;2023-04-03T07:42:46;5.67;;;4.73;;
11443;SDS011;5778;47.856;12.154;2023-04-03T07:45:14;6.63;;;4.50;;
11443;SDS011;5778;47.856;12.154;2023-04-03T07:47:42;5.03;;;4.63;;
11443;SDS011;5778;47.856;12.154;2023-04-03T07:50:09;10.23;;;5.63;;
11443;SDS011;5778;47.856;12.154;2023-04-03T07:52:37;5.63;;;4.33;;
11443;SDS011;5778;47.856;12.154;2023-04-03T07:55:04;4.37;;;3.97;;
11443;SDS011;5778;47.856;12.154;2023-04-03T07:57:32;4.60;;;4.20;;
11443;SDS011;5778;47.856;12.154;2023-04-03T07:59:59;4.90;;;4.50;;
11443;SDS011;5778;47.856;12.154;2023-04-03T08:02:27;4.57;;;4.13;;
11443;SDS011;5778;47.856;12.154;2023-04-03T08:05:04;5.07;;;4.57;;
11443;SDS011;5778;47.856;12.154;2023-04-03T08:07:31;4.53;;;4.13;;
11443;SDS011;5778;47.856;12.154;2023-04-03T08:09:59;6.37;;;4.57;;
11443;SDS011;5778;47.856;12.154;2023-04-03T08:12:26;4.20;;;3.90;;
11443;SDS011;5778;47.856;12.154;2023-04-03T08:14:57;4.77;;;4.37;;
11443;SDS011;5778;47.856;12.154;2023-04-03T08:17:26;4.33;;;3.97;;
11443;SDS011;5778;47.856;12.154;2023-04-03T08:19:53;4.17;;;3.87;;
11443;SDS011;5778;47.856;12.154;2023-04-03T08:22:20;3.93;;;3.63;;
11443;SDS011;5778;47.856;12.154;2023-04-03T08:24:58;4.27;;;3.87;;
11443;SDS011;5778;47.856;12.154;2023-04-03T08:27:28;4.77;;;3.97;;
11443;SDS011;5778;47.856;12.154;2023-04-03T08:29:55;4.53;;;4.03;;
11443;SDS011;5778;47.856;12.154;2023-04-03T08:32:22;3.90;;;3.60;;
11443;SDS011;5778;47.856;12.154;2023-04-03T08:35:09;4.07;;;3.70;;
11443;SDS011;5778;47.856;12.154;2023-04-03T08:37:38;4.60;;;4.20;;
11443;SDS011;5778;47.856;12.154;2023-04-03T08:40:06;3.83;;;3.53;;
11443;SDS011;5778;47.856;12.154;2023-04-03T08:42:41;3.93;;;3.60;;
11443;SDS011;5778;47.856;12.154;2023-04-03T08:45:19;185.43;;;18.90;;
11443;SDS011;5778;47.856;12.154;2023-04-03T08:47:55;38.50;;;8.10;;
11443;SDS011;5778;47.856;12.154;2023-04-03T08:50:36;4.37;;;3.97;;
11443;SDS011;5778;47.856;12.154;2023-04-03T08:53:22;5.50;;;3.60;;
11443;SDS011;5778;47.856;12.154;2023-04-03T08:55:53;145.17;;;13.60;;
11443;SDS011;5778;47.856;12.154;2023-04-03T08:58:23;801.27;;;66.97;;
11443;SDS011;5778;47.856;12.154;2023-04-03T09:00:54;7.00;;;4.63;;
11443;SDS011;5778;47.856;12.154;2023-04-03T09:06:33;10.97;;;4.53;;
11443;SDS011;5778;47.856;12.154;2023-04-03T09:09:05;4.43;;;4.03;;
11443;SDS011;5778;47.856;12.154;2023-04-03T09:11:42;3.90;;;3.60;;
11443;SDS011;5778;47.856;12.154;2023-04-03T09:18:05;3.90;;;3.47;;
11443;SDS011;5778;47.856;12.154;2023-04-03T09:20:42;3.77;;;3.43;;
11443;SDS011;5778;47.856;12.154;2023-04-03T09:23:24;3.97;;;3.67;;
11443;SDS011;5778;47.856;12.154;2023-04-03T09:25:56;3.70;;;3.40;;
11443;SDS011;5778;47.856;12.154;2023-04-03T09:28:30;4.83;;;3.90;;
11443;SDS011;5778;47.856;12.154;2023-04-03T09:31:01;3.73;;;3.43;;
11443;SDS011;5778;47.856;12.154;2023-04-03T09:33:43;4.10;;;3.80;;
11443;SDS011;5778;47.856;12.154;2023-04-03T09:36:11;3.80;;;3.50;;
11443;SDS011;5778;47.856;12.154;2023-04-03T09:38:40;4.97;;;3.63;;
11443;SDS011;5778;47.856;12.154;2023-04-03T09:41:13;3.47;;;3.17;;
11443;SDS011;5778;47.856;12.154;2023-04-03T09:43:58;3.30;;;3.10;;
11443;SDS011;5778;47.856;12.154;2023-04-03T09:46:28;4.13;;;3.30;;
11443;SDS011;5778;47.856;12.154;2023-04-03T09:48:56;4.37;;;3.43;;
11443;SDS011;5778;47.856;12.154;2023-04-03T09:51:25;3.30;;;3.10;;
11443;SDS011;5778;47.856;12.154;2023-04-03T10:00:55;5.07;;;3.70;;
11443;SDS011;5778;47.856;12.154;2023-04-03T10:03:39;25.57;;;5.63;;
11443;SDS011;5778;47.856;12.154;2023-04-03T10:06:21;4.70;;;4.30;;
11443;SDS011;5778;47.856;12.154;2023-04-03T10:08:57;4.00;;;3.70;;
11443;SDS011;5778;47.856;12.154;2023-04-03T10:11:26;3.90;;;3.40;;
11443;SDS011;5778;47.856;12.154;2023-04-03T10:16:57;4.87;;;4.20;;
11443;SDS011;5778;47.856;12.154;2023-04-03T10:19:38;3.90;;;3.60;;
11443;SDS011;5778;47.856;12.154;2023-04-03T10:22:12;4.30;;;3.87;;
11443;SDS011;5778;47.856;12.154;2023-04-03T10:27:58;3.97;;;3.67;;
11443;SDS011;5778;47.856;12.154;2023-04-03T10:30:36;3.83;;;3.53;;
11443;SDS011;5778;47.856;12.154;2023-04-03T10:33:28;3.60;;;3.33;;
11443;SDS011;5778;47.856;12.154;2023-04-03T10:36:07;3.33;;;3.07;;
11443;SDS011;5778;47.856;12.154;2023-04-03T10:38:44;3.50;;;3.20;;
11443;SDS011;5778;47.856;12.154;2023-04-03T10:41:22;3.23;;;2.93;;
11443;SDS011;5778;47.856;12.154;2023-04-03T10:47:00;3.60;;;3.03;;
11443;SDS011;5778;47.856;12.154;2023-04-03T10:49:35;2.90;;;2.70;;
11443;SDS011;5778;47.856;12.154;2023-04-03T10:52:14;3.53;;;3.23;;
11443;SDS011;5778;47.856;12.154;2023-04-03T10:57:59;2.93;;;2.60;;
11443;SDS011;5778;47.856;12.154;2023-04-03T11:00:30;2.83;;;2.53;;
11443;SDS011;5778;47.856;12.154;2023-04-03T11:06:11;2.77;;;2.57;;
11443;SDS011;5778;47.856;12.154;2023-04-03T11:08:42;2.93;;;2.73;;
11443;SDS011;5778;47.856;12.154;2023-04-03T11:11:13;2.60;;;2.40;;
11443;SDS011;5778;47.856;12.154;2023-04-03T11:16:53;1.87;;;1.77;;
11443;SDS011;5778;47.856;12.154;2023-04-03T11:19:41;2.00;;;1.90;;
11443;SDS011;5778;47.856;12.154;2023-04-03T11:22:20;2.60;;;2.40;;
11443;SDS011;5778;47.856;12.154;2023-04-03T11:25:02;2.90;;;2.60;;
11443;SDS011;5778;47.856;12.154;2023-04-03T11:27:38;2.87;;;2.67;;
11443;SDS011;5778;47.856;12.154;2023-04-03T11:30:14;3.50;;;3.20;;
11443;SDS011;5778;47.856;12.154;2023-04-03T11:32:59;5.80;;;4.10;;
11443;SDS011;5778;47.856;12.154;2023-04-03T11:35:39;4.27;;;3.87;;
11443;SDS011;5778;47.856;12.154;2023-04-03T11:38:13;3.73;;;3.43;;
11443;SDS011;5778;47.856;12.154;2023-04-03T11:40:48;3.43;;;3.13;;
11443;SDS011;5778;47.856;12.154;2023-04-03T11:46:22;3.20;;;3.00;;
11443;SDS011;5778;47.856;12.154;2023-04-03T11:49:12;3.13;;;2.93;;
11443;SDS011;5778;47.856;12.154;2023-04-03T11:58:26;2.60;;;2.40;;
11443;SDS011;5778;47.856;12.154;2023-04-03T12:00:56;3.37;;;2.90;;
11443;SDS011;5778;47.856;12.154;2023-04-03T12:09:54;3.40;;;3.10;;
11443;SDS011;5778;47.856;12.154;2023-04-03T12:15:26;4.87;;;3.70;;
11443;SDS011;5778;47.856;12.154;2023-04-03T12:21:05;3.60;;;3.00;;
11443;SDS011;5778;47.856;12.154;2023-04-03T12:27:01;3.17;;;2.97;;
11443;SDS011;5778;47.856;12.154;2023-04-03T12:29:33;3.90;;;3.10;;
11443;SDS011;5778;47.856;12.154;2023-04-03T12:32:08;2.93;;;2.67;;
11443;SDS011;5778;47.856;12.154;2023-04-03T12:34:51;3.63;;;3.10;;
11443;SDS011;5778;47.856;12.154;2023-04-03T12:37:39;3.83;;;3.30;;
11443;SDS011;5778;47.856;12.154;2023-04-03T12:40:21;3.90;;;3.00;;
11443;SDS011;5778;47.856;12.154;2023-04-03T12:43:03;3.13;;;2.83;;
11443;SDS011;5778;47.856;12.154;2023-04-03T12:45:44;4.30;;;3.40;;
11443;SDS011;5778;47.856;12.154;2023-04-03T12:48:17;3.77;;;3.40;;
11443;SDS011;5778;47.856;12.154;2023-04-03T12:50:51;3.47;;;3.17;;
11443;SDS011;5778;47.856;12.154;2023-04-03T12:53:21;4.73;;;3.43;;
11443;SDS011;5778;47.856;12.154;2023-04-03T12:55:53;3.77;;;3.47;;
11443;SDS011;5778;47.856;12.154;2023-04-03T12:58:21;8.80;;;3.33;;
11443;SDS011;5778;47.856;12.154;2023-04-03T13:01:00;3.80;;;3.20;;
11443;SDS011;5778;47.856;12.154;2023-04-03T13:03:40;3.60;;;3.30;;
11443;SDS011;5778;47.856;12.154;2023-04-03T13:09:22;4.27;;;3.97;;
11443;SDS011;5778;47.856;12.154;2023-04-03T13:11:52;3.70;;;3.40;;
11443;SDS011;5778;47.856;12.154;2023-04-03T13:14:26;4.43;;;4.07;;
11443;SDS011;5778;47.856;12.154;2023-04-03T13:16:56;3.90;;;3.60;;
11443;SDS011;5778;47.856;12.154;2023-04-03T13:19:26;4.07;;;3.67;;
11443;SDS011;5778;47.856;12.154;2023-04-03T13:21:56;4.70;;;4.23;;
11443;SDS011;5778;47.856;12.154;2023-04-03T13:27:50;3.70;;;3.40;;
11443;SDS011;5778;47.856;12.154;2023-04-03T13:30:22;5.43;;;3.60;;
11443;SDS011;5778;47.856;12.154;2023-04-03T13:32:56;3.80;;;3.50;;
11443;SDS011;5778;47.856;12.154;2023-04-03T13:35:27;5.27;;;3.93;;
11443;SDS011;5778;47.856;12.154;2023-04-03T13:37:57;4.10;;;3.00;;
11443;SDS011;5778;47.856;12.154;2023-04-03T13:40:26;3.40;;;3.07;;
11443;SDS011;5778;47.856;12.154;2023-04-03T13:46:00;4.20;;;3.00;;
11443;SDS011;5778;47.856;12.154;2023-04-03T13:48:47;3.60;;;3.07;;
11443;SDS011;5778;47.856;12.154;2023-04-03T13:51:20;3.97;;;3.33;;
11443;SDS011;5778;47.856;12.154;2023-04-03T13:53:50;4.17;;;3.77;;
11443;SDS011;5778;47.856;12.154;2023-04-03T13:56:26;3.70;;;3.40;;
11443;SDS011;5778;47.856;12.154;2023-04-03T13:58:59;6.53;;;3.63;;
11443;SDS011;5778;47.856;12.154;2023-04-03T14:01:34;3.60;;;3.30;;
11443;SDS011;5778;47.856;12.154;2023-04-03T14:07:11;4.33;;;3.90;;
11443;SDS011;5778;47.856;12.154;2023-04-03T14:09:39;4.17;;;3.87;;
11443;SDS011;5778;47.856;12.154;2023-04-03T14:12:08;4.33;;;3.93;;
11443;SDS011;5778;47.856;12.154;2023-04-03T14:14:41;5.47;;;4.30;;
11443;SDS011;5778;47.856;12.154;2023-04-03T14:17:12;7.53;;;5.20;;
11443;SDS011;5778;47.856;12.154;2023-04-03T14:19:41;7.77;;;4.20;;
11443;SDS011;5778;47.856;12.154;2023-04-03T14:22:13;5.00;;;4.10;;
11443;SDS011;5778;47.856;12.154;2023-04-03T14:27:33;6.53;;;4.67;;
11443;SDS011;5778;47.856;12.154;2023-04-03T14:30:01;4.73;;;3.83;;
11443;SDS011;5778;47.856;12.154;2023-04-03T14:32:29;4.50;;;3.50;;
11443;SDS011;5778;47.856;12.154;2023-04-03T14:34:57;3.90;;;3.50;;
11443;SDS011;5778;47.856;12.154;2023-04-03T14:37:29;4.30;;;3.40;;
11443;SDS011;5778;47.856;12.154;2023-04-03T14:39:58;5.03;;;3.70;;
11443;SDS011;5778;47.856;12.154;2023-04-03T14:42:28;3.47;;;3.17;;
11443;SDS011;5778;47.856;12.154;2023-04-03T14:48:02;4.40;;;4.00;;
11443;SDS011;5778;47.856;12.154;2023-04-03T14:50:29;3.40;;;3.10;;
11443;SDS011;5778;47.856;12.154;2023-04-03T14:53:03;4.00;;;3.60;;
11443;SDS011;5778;47.856;12.154;2023-04-03T14:55:31;4.03;;;3.10;;
11443;SDS011;5778;47.856;12.154;2023-04-03T14:57:58;3.30;;;3.00;;
11443;SDS011;5778;47.856;12.154;2023-04-03T15:00:26;4.60;;;4.20;;
11443;SDS011;5778;47.856;12.154;2023-04-03T15:05:49;4.73;;;3.47;;
11443;SDS011;5778;47.856;12.154;2023-04-03T15:08:21;4.03;;;3.33;;
11443;SDS011;5778;47.856;12.154;2023-04-03T15:10:50;4.20;;;3.77;;
11443;SDS011;5778;47.856;12.154;2023-04-03T15:13:20;4.20;;;3.50;;
11443;SDS011;5778;47.856;12.154;2023-04-03T15:15:50;4.50;;;3.20;;
11443;SDS011;5778;47.856;12.154;2023-04-03T15:18:19;5.73;;;3.50;;
11443;SDS011;5778;47.856;12.154;2023-04-03T15:20:48;4.87;;;3.17;;
11443;SDS011;5778;47.856;12.154;2023-04-03T15:23:24;3.90;;;3.33;;
11443;SDS011;5778;47.856;12.154;2023-04-03T15:25:53;3.40;;;3.20;;
11443;SDS011;5778;47.856;12.154;2023-04-03T15:28:22;4.07;;;3.60;;
11443;SDS011;5778;47.856;12.154;2023-04-03T15:30:51;4.37;;;3.50;;
11443;SDS011;5778;47.856;12.154;2023-04-03T15:36:17;3.73;;;3.43;;
11443;SDS011;5778;47.856;12.154;2023-04-03T15:38:46;3.23;;;2.90;;
11443;SDS011;5778;47.856;12.154;2023-04-03T15:41:14;3.37;;;2.90;;
11443;SDS011;5778;47.856;12.154;2023-04-03T15:43:43;3.60;;;3.30;;
11443;SDS011;5778;47.856;12.154;2023-04-03T15:46:11;3.77;;;3.30;;
11443;SDS011;5778;47.856;12.154;2023-04-03T15:48:39;3.70;;;2.83;;
11443;SDS011;5778;47.856;12.154;2023-04-03T15:51:06;3.07;;;2.77;;
11443;SDS011;5778;47.856;12.154;2023-04-03T15:56:29;4.40;;;4.00;;
11443;SDS011;5778;47.856;12.154;2023-04-03T15:58:56;5.17;;;3.70;;
11443;SDS011;5778;47.856;12.154;2023-04-03T16:01:22;5.43;;;3.63;;
11443;SDS011;5778;47.856;12.154;2023-04-03T16:04:03;2.93;;;2.60;;
11443;SDS011;5778;47.856;12.154;2023-04-03T16:06:30;3.70;;;3.40;;
11443;SDS011;5778;47.856;12.154;2023-04-03T16:08:59;3.27;;;2.90;;
11443;SDS011;5778;47.856;12.154;2023-04-03T16:11:28;4.27;;;3.33;;
11443;SDS011;5778;47.856;12.154;2023-04-03T16:16:44;5.87;;;4.37;;
11443;SDS011;5778;47.856;12.154;2023-04-03T16:19:11;3.73;;;3.43;;
11443;SDS011;5778;47.856;12.154;2023-04-03T16:21:38;2.80;;;2.60;;
11443;SDS011;5778;47.856;12.154;2023-04-03T16:26:56;3.73;;;3.10;;
11443;SDS011;5778;47.856;12.154;2023-04-03T16:29:23;4.77;;;3.13;;
11443;SDS011;5778;47.856;12.154;2023-04-03T16:31:50;3.80;;;3.10;;
11443;SDS011;5778;47.856;12.154;2023-04-03T16:37:22;3.93;;;2.40;;
11443;SDS011;5778;47.856;12.154;2023-04-03T16:39:51;4.03;;;3.23;;
11443;SDS011;5778;47.856;12.154;2023-04-03T16:42:20;3.53;;;3.23;;
11443;SDS011;5778;47.856;12.154;2023-04-03T16:45:03;4.10;;;3.70;;
11443;SDS011;5778;47.856;12.154;2023-04-03T16:47:31;5.13;;;3.83;;
11443;SDS011;5778;47.856;12.154;2023-04-03T16:49:58;3.33;;;2.90;;
11443;SDS011;5778;47.856;12.154;2023-04-03T16:52:24;3.90;;;2.93;;
11443;SDS011;5778;47.856;12.154;2023-04-03T16:58:08;3.10;;;2.77;;
11443;SDS011;5778;47.856;12.154;2023-04-03T17:00:35;3.30;;;3.00;;
11443;SDS011;5778;47.856;12.154;2023-04-03T17:05:53;3.67;;;3.30;;
11443;SDS011;5778;47.856;12.154;2023-04-03T17:08:20;3.30;;;2.60;;
11443;SDS011;5778;47.856;12.154;2023-04-03T17:10:47;4.93;;;3.70;;
11443;SDS011;5778;47.856;12.154;2023-04-03T17:17:04;3.97;;;3.03;;
11443;SDS011;5778;47.856;12.154;2023-04-03T17:19:32;4.10;;;3.30;;
11443;SDS011;5778;47.856;12.154;2023-04-03T17:22:00;2.97;;;2.60;;
11443;SDS011;5778;47.856;12.154;2023-04-03T17:27:24;2.57;;;2.37;;
11443;SDS011;5778;47.856;12.154;2023-04-03T17:29:51;5.10;;;2.90;;
11443;SDS011;5778;47.856;12.154;2023-04-03T17:32:21;3.60;;;2.90;;
11443;SDS011;5778;47.856;12.154;2023-04-03T17:35:03;2.83;;;2.63;;
11443;SDS011;5778;47.856;12.154;2023-04-03T17:37:31;3.30;;;2.90;;
11443;SDS011;5778;47.856;12.154;2023-04-03T17:39:59;3.13;;;2.83;;
11443;SDS011;5778;47.856;12.154;2023-04-03T17:42:27;3.77;;;2.60;;
11443;SDS011;5778;47.856;12.154;2023-04-03T17:47:51;6.00;;;4.17;;
11443;SDS011;5778;47.856;12.154;2023-04-03T17:50:18;3.77;;;3.40;;
11443;SDS011;5778;47.856;12.154;2023-04-03T17:52:50;5.53;;;3.53;;
11443;SDS011;5778;47.856;12.154;2023-04-03T17:55:17;4.23;;;3.83;;
11443;SDS011;5778;47.856;12.154;2023-04-03T17:57:44;4.20;;;3.80;;